Durham, Oregon
Current Conditions -  °F | °C
As of 2:53 PM on Friday 19 Dec 2014 (Local Time) from KHIO Reporting Station
Broken Clouds Broken Clouds  
Wind Chill: 50°   Ceiling: 4600
Heat Index: 50°   Visibility: 10mi
Dew Point: 44°   Wind: 9mph
Humidity: 80%   Direction: 170°S
Pressure: 29.99"   Gusts: NA
Location:  45.4077°N, 122.809°W
Report Text: KHIO 192253Z AUTO 17008KT 10SM FEW018 BKN046 10/07 A2999 RMK AO2 RAB19E38 SLP155 P0000 T01000067
Loading
Personal Weather Stations






























Interactive Weather Map New forecast layout! Learn more

10-Day Weather Forecast

Advertisements
Track Severe Weather on mobile